createdAt,value
2024-05-09T00:01:53.042Z,99914.92
2024-05-09T00:04:23.685Z,99913.63
2024-05-09T00:06:54.390Z,99914.36
2024-05-09T00:09:25.126Z,99911.86
2024-05-09T00:11:55.665Z,99908.26
2024-05-09T00:14:26.440Z,99907.31
2024-05-09T00:16:57.256Z,99908.73
2024-05-09T00:19:28.343Z,99904.73
2024-05-09T00:21:58.926Z,99903.27
2024-05-09T00:24:29.750Z,99904.08
2024-05-09T00:27:00.315Z,99900.15
2024-05-09T00:29:31.236Z,99902.62
2024-05-09T00:32:02.121Z,99901.66
2024-05-09T00:34:33.152Z,99898.83
2024-05-09T00:37:03.763Z,99896.06
2024-05-09T00:39:34.270Z,99897.79
2024-05-09T00:42:05.407Z,99894.36
2024-05-09T00:44:36.131Z,99898.59
2024-05-09T00:47:07.541Z,99904.02
2024-05-09T00:49:38.408Z,99902.39
2024-05-09T00:52:09.756Z,99903.23
2024-05-09T00:54:40.749Z,99901.09
2024-05-09T00:57:12.008Z,99897.63
2024-05-09T00:59:43.159Z,99895.10
2024-05-09T01:02:14.245Z,99894.27
2024-05-09T01:04:45.140Z,99890.77
2024-05-09T01:07:16.188Z,99893.42
2024-05-09T01:09:46.947Z,99901.91
2024-05-09T01:12:17.534Z,99900.50
2024-05-09T01:14:48.316Z,99903.83
2024-05-09T01:17:19.067Z,99905.42
2024-05-09T01:19:49.908Z,99907.98
2024-05-09T01:22:23.070Z,99908.69
2024-05-09T01:24:53.605Z,99912.34
2024-05-09T01:27:24.168Z,99919.39
2024-05-09T01:29:54.942Z,99916.81
2024-05-09T01:32:25.949Z,99917.04
2024-05-09T01:34:56.876Z,99918.06
2024-05-09T01:37:27.342Z,99917.73
2024-05-09T01:39:58.052Z,99916.79
2024-05-09T01:42:28.882Z,99918.16
2024-05-09T01:44:59.337Z,99921.61
2024-05-09T01:47:30.350Z,99917.27
2024-05-09T01:50:01.142Z,99917.16
2024-05-09T01:52:31.991Z,99915.64
2024-05-09T01:55:05.551Z,99916.41
2024-05-09T01:57:36.968Z,99920.63
2024-05-09T02:00:10.407Z,99921.70
2024-05-09T02:02:41.544Z,99917.64
2024-05-09T02:05:12.444Z,99913.19
2024-05-09T02:07:43.235Z,99912.55
2024-05-09T02:10:20.352Z,99910.91
2024-05-09T02:12:53.964Z,99912.55
2024-05-09T02:15:24.455Z,99913.69
2024-05-09T02:17:55.538Z,99914.15
2024-05-09T02:20:33.702Z,99907.20
2024-05-09T02:23:09.434Z,99912.13
2024-05-09T02:25:40.507Z,99911.80
2024-05-09T02:28:11.254Z,99909.20
2024-05-09T02:30:42.653Z,99905.36
2024-05-09T02:33:14.521Z,99901.73
2024-05-09T02:35:45.660Z,99903.89
2024-05-09T02:38:16.347Z,99906.49
2024-05-09T02:40:47.419Z,99911.41
2024-05-09T02:43:17.798Z,99916.01
2024-05-09T02:45:48.358Z,99914.70
2024-05-09T02:48:19.458Z,99914.30
2024-05-09T02:50:51.885Z,99915.44
2024-05-09T02:53:22.610Z,99914.79
2024-05-09T02:55:53.189Z,99917.46
2024-05-09T02:58:24.008Z,99920.55
2024-05-09T03:00:54.659Z,99921.15
2024-05-09T03:03:25.792Z,99920.72
2024-05-09T03:05:56.695Z,99925.27
2024-05-09T03:08:27.938Z,99927.70
2024-05-09T03:10:58.540Z,99929.86
2024-05-09T03:13:29.315Z,99929.66
2024-05-09T03:16:02.071Z,99929.63
2024-05-09T03:18:32.565Z,99929.45
2024-05-09T03:21:03.361Z,99929.13
2024-05-09T03:23:36.136Z,99930.20
2024-05-09T03:26:12.567Z,99928.73
2024-05-09T03:28:44.080Z,99930.62
2024-05-09T03:31:15.072Z,99933.40
2024-05-09T03:33:45.785Z,99930.92
2024-05-09T03:36:16.600Z,99936.85
2024-05-09T03:38:50.342Z,99940.58
2024-05-09T03:41:21.167Z,99939.35
2024-05-09T03:43:51.715Z,99935.09
2024-05-09T03:46:22.379Z,99939.73
2024-05-09T03:48:53.370Z,99939.27
2024-05-09T03:51:23.982Z,99937.23
2024-05-09T03:53:55.068Z,99935.94
2024-05-09T03:56:25.666Z,99936.73
2024-05-09T03:58:56.291Z,99944.25
2024-05-09T04:01:26.961Z,99945.48
2024-05-09T04:03:57.880Z,99947.25
2024-05-09T04:06:28.820Z,99952.73
2024-05-09T04:08:59.578Z,99953.23
2024-05-09T04:11:30.194Z,99956.66
2024-05-09T04:14:01.223Z,99957.20
2024-05-09T04:16:31.939Z,99956.32
2024-05-09T04:19:02.812Z,99956.80
2024-05-09T04:21:33.690Z,99953.11
2024-05-09T04:24:04.259Z,99953.29
2024-05-09T04:26:34.772Z,99953.80
2024-05-09T04:29:05.936Z,99957.52
2024-05-09T04:31:39.830Z,99961.16
2024-05-09T04:34:10.445Z,99962.17
2024-05-09T04:36:44.380Z,99961.55
2024-05-09T04:39:15.236Z,99966.65
2024-05-09T04:41:46.087Z,99967.27
2024-05-09T04:44:17.220Z,99969.06
2024-05-09T04:46:49.345Z,99970.09
2024-05-09T04:49:20.290Z,99971.80
2024-05-09T04:51:51.377Z,99970.55
2024-05-09T04:54:30.207Z,99973.42
2024-05-09T04:57:07.184Z,99975.98
2024-05-09T04:59:38.024Z,99973.34
2024-05-09T05:02:09.234Z,99973.35
2024-05-09T05:04:39.900Z,99975.45
2024-05-09T05:07:10.675Z,99981.49
2024-05-09T05:09:42.963Z,99987.72
2024-05-09T05:12:27.732Z,99984.96
2024-05-09T05:14:59.196Z,99986.48
2024-05-09T05:17:30.247Z,99988.52
2024-05-09T05:20:01.648Z,99994.13
2024-05-09T05:22:32.974Z,99998.15
2024-05-09T05:25:04.383Z,100000.04
2024-05-09T05:27:35.256Z,99998.17
2024-05-09T05:30:11.784Z,100003.02
2024-05-09T05:32:45.399Z,100000.81
2024-05-09T05:35:16.195Z,100004.00
2024-05-09T05:37:46.954Z,100001.13
2024-05-09T05:40:27.884Z,100000.30
2024-05-09T05:43:06.049Z,100005.11
2024-05-09T05:45:36.803Z,100003.56
2024-05-09T05:48:09.751Z,100004.59
2024-05-09T05:50:40.647Z,100005.54
2024-05-09T05:53:12.473Z,100004.70
2024-05-09T05:55:43.751Z,100002.73
2024-05-09T05:58:15.443Z,99996.81
2024-05-09T06:00:46.475Z,99996.20
2024-05-09T06:03:17.156Z,99997.69
2024-05-09T06:05:47.746Z,99996.27
2024-05-09T06:08:18.436Z,99995.91
2024-05-09T06:10:49.239Z,99991.86
2024-05-09T06:13:20.423Z,99995.32
2024-05-09T06:15:51.114Z,99993.98
2024-05-09T06:18:22.365Z,99998.04
2024-05-09T06:20:53.460Z,99996.52
2024-05-09T06:23:24.611Z,99995.84
2024-05-09T06:25:55.537Z,99992.59
2024-05-09T06:28:26.014Z,99994.91
2024-05-09T06:30:56.656Z,99994.13
2024-05-09T06:33:27.632Z,99994.05
2024-05-09T06:35:59.369Z,99989.39
2024-05-09T06:38:30.685Z,99988.48
2024-05-09T06:41:01.654Z,99982.00
2024-05-09T06:43:32.799Z,99981.45
2024-05-09T06:46:03.661Z,99982.98
2024-05-09T06:48:34.680Z,99986.94
2024-05-09T06:51:05.934Z,99989.44
2024-05-09T06:53:36.782Z,99990.19
2024-05-09T06:56:08.686Z,99993.41
2024-05-09T06:58:39.592Z,99995.16
2024-05-09T07:01:10.216Z,99995.05
2024-05-09T07:03:43.718Z,99994.90
2024-05-09T07:06:14.335Z,99996.15
2024-05-09T07:08:44.994Z,100001.73
2024-05-09T07:11:16.408Z,99995.92
2024-05-09T07:13:47.402Z,99998.17
2024-05-09T07:16:18.108Z,99995.55
2024-05-09T07:18:54.826Z,99996.46
2024-05-09T07:21:25.693Z,99994.73
2024-05-09T07:23:56.357Z,99988.91
2024-05-09T07:26:27.201Z,99991.47
2024-05-09T07:28:58.030Z,99990.30
2024-05-09T07:31:30.532Z,99987.70
2024-05-09T07:34:01.473Z,99987.14
2024-05-09T07:36:32.212Z,99986.64
2024-05-09T07:39:03.142Z,99985.11
2024-05-09T07:41:34.093Z,99985.40
2024-05-09T07:44:04.703Z,99986.64
2024-05-09T07:54:17.128Z,99982.88
2024-05-09T07:56:47.859Z,99982.04
2024-05-09T07:59:18.698Z,99982.04
2024-05-09T08:01:49.600Z,99983.67
2024-05-09T08:04:21.392Z,99985.38
2024-05-09T08:06:53.125Z,99980.47
2024-05-09T08:09:23.615Z,99982.69
2024-05-09T08:11:54.601Z,99986.08
2024-05-09T08:14:25.499Z,99984.44
2024-05-09T08:16:56.165Z,99984.95
2024-05-09T08:19:27.040Z,99984.27
2024-05-09T08:21:57.679Z,99984.16
2024-05-09T08:24:28.821Z,99983.22
2024-05-09T08:26:59.598Z,99979.95
2024-05-09T08:29:30.758Z,99979.28
2024-05-09T08:32:01.449Z,99973.41
2024-05-09T08:34:32.507Z,99969.70
2024-05-09T08:37:10.185Z,99972.00
2024-05-09T08:39:46.416Z,99972.29
2024-05-09T08:42:19.314Z,99970.95
2024-05-09T08:44:50.837Z,99971.22
2024-05-09T08:47:21.472Z,99970.70
2024-05-09T08:49:58.099Z,99969.00
2024-05-09T08:52:28.944Z,99967.24
2024-05-09T08:54:59.916Z,99965.96
2024-05-09T08:57:33.240Z,99965.00
2024-05-09T09:00:10.235Z,99962.29
2024-05-09T09:02:47.450Z,99958.49
2024-05-09T09:05:21.301Z,99956.14
2024-05-09T09:07:52.091Z,99959.52
2024-05-09T09:10:29.786Z,99965.64
2024-05-09T09:13:05.178Z,99964.80
2024-05-09T09:15:46.846Z,99964.36
2024-05-09T09:18:18.292Z,99965.25
2024-05-09T09:20:50.105Z,99963.13
2024-05-09T09:23:20.778Z,99963.13
2024-05-09T09:25:51.897Z,99964.70
2024-05-09T09:28:25.036Z,99964.92
2024-05-09T09:31:01.869Z,99955.22
2024-05-09T09:33:35.320Z,99955.16
2024-05-09T09:36:08.980Z,99949.70
2024-05-09T09:38:42.410Z,99949.06
2024-05-09T09:41:13.451Z,99945.45
2024-05-09T09:43:45.066Z,99945.95
2024-05-09T09:46:17.236Z,99937.48
2024-05-09T09:48:49.763Z,99944.88
2024-05-09T09:51:21.885Z,99948.89
2024-05-09T09:53:55.450Z,99947.03
2024-05-09T09:56:27.105Z,99947.88
2024-05-09T09:59:01.468Z,99947.55
2024-05-09T10:01:34.703Z,99943.95
2024-05-09T10:04:06.267Z,99943.89
2024-05-09T10:06:42.676Z,99945.40
2024-05-09T10:09:14.879Z,99939.84
2024-05-09T10:11:51.777Z,99942.98
2024-05-09T10:14:25.753Z,99935.87
2024-05-09T10:17:06.826Z,99929.08
2024-05-09T10:19:37.656Z,99931.63
2024-05-09T10:22:09.692Z,99929.30
2024-05-09T10:24:53.667Z,99922.14
2024-05-09T10:27:30.412Z,99922.36
2024-05-09T10:30:06.849Z,99926.89
2024-05-09T10:32:42.813Z,99920.98
2024-05-09T10:35:15.636Z,99921.05
2024-05-09T10:37:47.205Z,99920.38
2024-05-09T10:40:26.403Z,99918.69
2024-05-09T10:43:05.682Z,99917.62
2024-05-09T10:45:37.738Z,99912.30
2024-05-09T10:48:11.011Z,99905.70
2024-05-09T10:50:43.742Z,99906.20
2024-05-09T10:53:14.310Z,99907.90
2024-05-09T10:55:56.111Z,99903.04
2024-05-09T10:58:27.139Z,99901.14
2024-05-09T11:00:58.715Z,99899.74
2024-05-09T11:03:30.522Z,99895.34
2024-05-09T11:06:02.234Z,99891.98
2024-05-09T11:08:34.975Z,99892.98
2024-05-09T11:11:07.591Z,99894.23
2024-05-09T11:13:40.068Z,99893.45
2024-05-09T11:16:20.614Z,99893.11
2024-05-09T11:18:59.194Z,99888.59
2024-05-09T11:21:30.153Z,99885.20
2024-05-09T11:24:02.011Z,99885.83
2024-05-09T11:26:33.940Z,99885.93
2024-05-09T11:29:04.597Z,99887.80
2024-05-09T11:31:45.542Z,99883.38
2024-05-09T11:34:16.426Z,99882.82
2024-05-09T11:36:47.447Z,99881.05
2024-05-09T11:39:18.477Z,99879.43
2024-05-09T11:41:49.076Z,99878.28
2024-05-09T11:44:19.697Z,99877.98
2024-05-09T11:46:50.399Z,99872.16
2024-05-09T11:49:23.170Z,99872.44
2024-05-09T11:51:55.233Z,99863.75
2024-05-09T11:54:25.886Z,99865.16
2024-05-09T11:56:56.853Z,99857.36
2024-05-09T11:59:27.717Z,99853.77
2024-05-09T12:01:58.496Z,99859.04
2024-05-09T12:04:29.528Z,99855.83
2024-05-09T12:07:00.258Z,99851.84
2024-05-09T12:09:31.826Z,99848.39
2024-05-09T12:12:02.550Z,99849.40
2024-05-09T12:14:33.231Z,99849.56
2024-05-09T12:17:05.479Z,99844.50
2024-05-09T12:19:36.124Z,99847.84
2024-05-09T12:22:07.321Z,99846.27
2024-05-09T12:24:38.374Z,99842.53
2024-05-09T12:27:09.305Z,99846.77
2024-05-09T12:29:40.064Z,99846.55
2024-05-09T12:32:11.020Z,99843.58
2024-05-09T12:34:41.839Z,99842.73
2024-05-09T12:37:13.664Z,99841.04
2024-05-09T12:39:44.547Z,99836.40
2024-05-09T12:42:26.356Z,99838.23
2024-05-09T12:44:58.538Z,99828.89
2024-05-09T12:47:29.503Z,99833.84
2024-05-09T12:50:00.717Z,99826.55
2024-05-09T12:52:31.481Z,99822.50
2024-05-09T12:55:02.521Z,99824.27
2024-05-09T12:57:33.487Z,99817.45
2024-05-09T13:00:05.740Z,99813.45
2024-05-09T13:02:36.399Z,99812.73
2024-05-09T13:05:08.218Z,99815.16
2024-05-09T13:07:39.622Z,99811.32
2024-05-09T13:10:16.163Z,99805.96
2024-05-09T13:12:50.419Z,99807.33
2024-05-09T13:15:21.345Z,99799.82
2024-05-09T13:17:53.197Z,99801.39
2024-05-09T13:20:31.162Z,99805.34
2024-05-09T13:23:06.345Z,99802.16
2024-05-09T13:25:38.476Z,99792.25
2024-05-09T13:28:10.089Z,99788.75
2024-05-09T13:30:42.159Z,99792.63
2024-05-09T13:33:14.241Z,99792.71
2024-05-09T13:35:49.237Z,99786.05
2024-05-09T13:38:22.203Z,99786.50
2024-05-09T13:40:53.377Z,99784.77
2024-05-09T13:43:25.307Z,99783.77
2024-05-09T13:45:57.173Z,99785.30
2024-05-09T13:48:28.239Z,99783.73
2024-05-09T13:50:59.448Z,99778.22
2024-05-09T13:53:30.367Z,99774.95
2024-05-09T13:56:01.268Z,99770.02
2024-05-09T13:58:31.791Z,99768.46
2024-05-09T14:01:02.646Z,99765.48
2024-05-09T14:03:33.642Z,99760.75
2024-05-09T14:06:04.905Z,99764.49
2024-05-09T14:08:35.758Z,99762.77
2024-05-09T14:11:06.748Z,99758.29
2024-05-09T14:13:37.431Z,99755.09
2024-05-09T14:16:09.262Z,99754.39
2024-05-09T14:18:40.717Z,99749.27
2024-05-09T14:21:11.370Z,99750.08
2024-05-09T14:23:42.003Z,99749.48
2024-05-09T14:26:13.277Z,99746.14
2024-05-09T14:28:44.208Z,99741.98
2024-05-09T14:31:14.865Z,99740.54
2024-05-09T14:33:45.760Z,99740.16
2024-05-09T14:36:16.493Z,99732.33
2024-05-09T14:38:47.147Z,99727.78
2024-05-09T14:41:18.062Z,99724.67
2024-05-09T14:43:48.834Z,99719.99
2024-05-09T14:46:19.762Z,99718.98
2024-05-09T14:48:51.267Z,99713.13
2024-05-09T14:51:21.861Z,99715.75
2024-05-09T14:53:52.723Z,99709.76
2024-05-09T14:56:23.884Z,99711.38
2024-05-09T14:58:56.973Z,99706.20
2024-05-09T15:01:27.963Z,99707.63
2024-05-09T15:03:58.868Z,99705.98
2024-05-09T15:06:29.862Z,99698.94
2024-05-09T15:09:01.742Z,99696.00
2024-05-09T15:11:32.507Z,99696.61
2024-05-09T15:14:02.976Z,99696.86
2024-05-09T15:16:35.007Z,99695.54
2024-05-09T15:19:05.950Z,99691.95
2024-05-09T15:21:37.280Z,99694.27
2024-05-09T15:24:08.948Z,99687.64
2024-05-09T15:26:40.019Z,99685.77
2024-05-09T15:29:11.065Z,99687.21
2024-05-09T15:31:41.898Z,99686.20
2024-05-09T15:34:12.747Z,99683.77
2024-05-09T15:36:44.005Z,99680.31
2024-05-09T15:39:14.697Z,99678.29
2024-05-09T15:41:45.457Z,99677.07
2024-05-09T15:44:16.091Z,99672.58
2024-05-09T15:46:46.874Z,99676.40
2024-05-09T15:49:17.798Z,99675.98
2024-05-09T15:51:48.526Z,99670.70
2024-05-09T15:54:20.229Z,99669.83
2024-05-09T15:56:53.146Z,99666.88
2024-05-09T15:59:24.012Z,99669.18
2024-05-09T16:01:55.525Z,99665.80
2024-05-09T16:04:26.371Z,99662.61
2024-05-09T16:06:57.572Z,99665.25
2024-05-09T16:09:28.353Z,99666.29
2024-05-09T16:11:59.089Z,99664.57
2024-05-09T16:14:29.896Z,99661.61
2024-05-09T16:17:00.838Z,99654.27
2024-05-09T16:19:31.606Z,99656.90
2024-05-09T16:22:02.736Z,99658.43
2024-05-09T16:24:33.407Z,99654.46
2024-05-09T16:27:04.388Z,99657.40
2024-05-09T16:29:34.985Z,99659.20
2024-05-09T16:32:06.631Z,99656.75
2024-05-09T16:34:37.509Z,99654.23
2024-05-09T16:37:10.877Z,99659.38
2024-05-09T16:39:41.598Z,99658.13
2024-05-09T16:42:12.506Z,99654.44
2024-05-09T16:44:43.297Z,99653.14
2024-05-09T16:47:14.398Z,99658.33
2024-05-09T16:49:45.151Z,99655.08
2024-05-09T16:52:17.521Z,99652.52
2024-05-09T16:54:48.181Z,99657.33
2024-05-09T16:57:19.238Z,99656.70
2024-05-09T16:59:50.262Z,99653.91
2024-05-09T17:02:21.417Z,99652.55
2024-05-09T17:04:52.386Z,99647.81
2024-05-09T17:07:23.569Z,99647.23
2024-05-09T17:09:54.447Z,99648.40
2024-05-09T17:12:26.869Z,99647.63
2024-05-09T17:14:57.811Z,99648.48
2024-05-09T17:17:29.115Z,99643.63
2024-05-09T17:19:59.984Z,99646.86
2024-05-09T17:22:31.641Z,99647.81
2024-05-09T17:25:02.626Z,99646.22
2024-05-09T17:27:33.804Z,99642.33
2024-05-09T17:30:06.355Z,99641.92
2024-05-09T17:32:38.837Z,99646.22
2024-05-09T17:35:09.990Z,99642.16
2024-05-09T17:37:41.038Z,99644.00
2024-05-09T17:40:16.958Z,99642.77
2024-05-09T17:42:48.390Z,99644.41
2024-05-09T17:45:20.473Z,99641.98
2024-05-09T17:47:51.547Z,99646.77
2024-05-09T17:50:28.019Z,99640.78
2024-05-09T17:53:05.617Z,99649.70
2024-05-09T17:55:37.069Z,99648.25
2024-05-09T17:58:08.545Z,99651.59
2024-05-09T18:00:42.009Z,99651.96
2024-05-09T18:03:14.494Z,99654.41
2024-05-09T18:05:45.980Z,99652.58
2024-05-09T18:08:16.769Z,99654.16
2024-05-09T18:10:47.560Z,99648.59
2024-05-09T18:13:18.547Z,99649.79
2024-05-09T18:15:49.358Z,99652.79
2024-05-09T18:18:20.652Z,99647.64
2024-05-09T18:20:52.598Z,99643.90
2024-05-09T18:23:23.446Z,99649.61
2024-05-09T18:25:56.332Z,99646.11
2024-05-09T18:28:27.421Z,99648.11
2024-05-09T18:30:58.213Z,99652.46
2024-05-09T18:33:29.437Z,99655.83
2024-05-09T18:36:00.335Z,99658.23
2024-05-09T18:38:31.279Z,99659.27
2024-05-09T18:41:02.140Z,99669.91
2024-05-09T18:43:38.512Z,99675.88
2024-05-09T18:46:15.827Z,99679.11
2024-05-09T18:48:46.909Z,99680.64
2024-05-09T18:51:17.949Z,99686.39
2024-05-09T18:53:48.964Z,99694.25
2024-05-09T18:56:19.824Z,99692.93
2024-05-09T18:58:50.374Z,99695.42
2024-05-09T19:01:21.534Z,99701.29
2024-05-09T19:03:52.576Z,99700.97
2024-05-09T19:06:26.521Z,99705.04
2024-05-09T19:08:58.477Z,99707.70
2024-05-09T19:11:29.156Z,99711.09
2024-05-09T19:14:04.217Z,99712.54
2024-05-09T19:16:36.193Z,99712.30
2024-05-09T19:19:07.641Z,99715.98
2024-05-09T19:21:41.185Z,99719.14
2024-05-09T19:24:13.262Z,99721.39
2024-05-09T19:26:44.288Z,99722.27
2024-05-09T19:29:15.135Z,99716.00
2024-05-09T19:31:45.853Z,99726.52
2024-05-09T19:34:17.193Z,99724.39
2024-05-09T19:36:48.128Z,99724.42
2024-05-09T19:39:19.041Z,99729.85
2024-05-09T19:41:51.852Z,99732.02
2024-05-09T19:44:22.879Z,99736.83
2024-05-09T19:46:53.648Z,99742.65
2024-05-09T19:49:24.394Z,99742.75
2024-05-09T19:51:55.354Z,99744.32
2024-05-09T19:54:26.336Z,99744.77
2024-05-09T19:56:57.728Z,99743.17
2024-05-09T19:59:28.795Z,99744.20
2024-05-09T20:01:59.542Z,99745.33
2024-05-09T20:04:30.538Z,99746.34
2024-05-09T20:07:01.458Z,99746.54
2024-05-09T20:09:32.498Z,99751.15
2024-05-09T20:12:03.191Z,99753.85
2024-05-09T20:14:33.872Z,99747.73
2024-05-09T20:17:04.922Z,99750.83
2024-05-09T20:19:36.322Z,99751.15
2024-05-09T20:22:07.617Z,99756.16
2024-05-09T20:24:38.742Z,99762.84
2024-05-09T20:27:10.013Z,99760.20
2024-05-09T20:29:40.893Z,99764.25
2024-05-09T20:32:11.877Z,99769.67
2024-05-09T20:34:42.649Z,99771.73
2024-05-09T20:37:14.266Z,99770.11
2024-05-09T20:39:44.976Z,99766.41
2024-05-09T20:42:16.006Z,99770.84
2024-05-09T20:44:47.147Z,99771.52
2024-05-09T20:47:18.590Z,99769.09
2024-05-09T20:49:50.682Z,99769.25
2024-05-09T20:52:21.672Z,99766.48
2024-05-09T20:54:52.567Z,99767.06
2024-05-09T20:57:23.247Z,99767.67
2024-05-09T20:59:53.854Z,99765.60
2024-05-09T21:02:24.639Z,99767.45
2024-05-09T21:04:55.901Z,99768.98
2024-05-09T21:07:26.625Z,99771.88
2024-05-09T21:09:57.413Z,99774.54
2024-05-09T21:12:28.259Z,99773.10
2024-05-09T21:14:58.683Z,99770.88
2024-05-09T21:17:29.343Z,99770.46
2024-05-09T21:20:00.003Z,99766.24
2024-05-09T21:22:30.960Z,99764.58
2024-05-09T21:25:01.870Z,99763.66
2024-05-09T21:27:34.152Z,99762.50
2024-05-09T21:30:09.670Z,99764.70
2024-05-09T21:32:41.179Z,99763.06
2024-05-09T21:35:11.907Z,99763.35
2024-05-09T21:37:42.883Z,99767.67
2024-05-09T21:40:24.110Z,99767.52
2024-05-09T21:43:01.789Z,99766.63
2024-05-09T21:45:32.635Z,99770.71
2024-05-09T21:48:06.202Z,99769.23
2024-05-09T21:50:41.048Z,99771.53
2024-05-09T21:53:13.734Z,99771.00
2024-05-09T21:55:45.016Z,99769.89
2024-05-09T21:58:16.269Z,99774.52
2024-05-09T22:00:48.104Z,99772.13
2024-05-09T22:03:18.922Z,99772.83
2024-05-09T22:05:49.642Z,99770.45
2024-05-09T22:08:20.361Z,99771.94
2024-05-09T22:10:51.430Z,99770.56
2024-05-09T22:13:22.420Z,99770.83
2024-05-09T22:15:53.132Z,99768.87
2024-05-09T22:18:23.765Z,99768.89
2024-05-09T22:20:55.047Z,99768.04
2024-05-09T22:23:26.078Z,99766.20
2024-05-09T22:25:56.797Z,99768.95
2024-05-09T22:28:27.689Z,99767.64
2024-05-09T22:30:58.245Z,99769.30
2024-05-09T22:33:28.987Z,99771.41
2024-05-09T22:35:59.559Z,99768.04
2024-05-09T22:38:30.729Z,99769.73
2024-05-09T22:41:01.684Z,99768.23
2024-05-09T22:43:32.384Z,99767.36
2024-05-09T22:46:03.887Z,99771.59
2024-05-09T22:48:34.906Z,99774.41
2024-05-09T22:51:06.660Z,99773.69
2024-05-09T22:53:37.549Z,99772.34
2024-05-09T22:56:09.431Z,99771.80
2024-05-09T22:58:40.059Z,99772.14
2024-05-09T23:01:16.942Z,99774.65
2024-05-09T23:03:48.130Z,99772.85
2024-05-09T23:06:18.909Z,99770.41
2024-05-09T23:08:49.977Z,99768.73
2024-05-09T23:11:20.625Z,99771.55
2024-05-09T23:13:51.206Z,99770.52
2024-05-09T23:16:21.861Z,99765.16
2024-05-09T23:18:53.005Z,99762.34
2024-05-09T23:21:23.424Z,99761.99
2024-05-09T23:23:54.450Z,99762.39
2024-05-09T23:26:25.124Z,99761.66
2024-05-09T23:28:55.991Z,99760.52
2024-05-09T23:31:26.841Z,99761.49
2024-05-09T23:33:57.655Z,99760.42
2024-05-09T23:36:30.534Z,99760.93
2024-05-09T23:39:01.184Z,99758.27
2024-05-09T23:41:31.825Z,99763.77
2024-05-09T23:44:02.365Z,99762.29
2024-05-09T23:46:33.086Z,99759.30
2024-05-09T23:49:03.784Z,99756.04
2024-05-09T23:51:34.610Z,99755.59
2024-05-09T23:54:05.277Z,99752.98
2024-05-09T23:56:35.829Z,99750.95
2024-05-09T23:59:06.963Z,99750.02
